createdAt,value
2022-12-22T00:01:54.242Z,14.60
2022-12-22T00:04:40.550Z,15.57
2022-12-22T00:07:25.655Z,15.73
2022-12-22T00:10:11.632Z,15.43
2022-12-22T00:12:57.685Z,15.20
2022-12-22T00:15:43.089Z,15.63
2022-12-22T00:18:34.102Z,13.98
2022-12-22T00:21:20.044Z,15.40
2022-12-22T00:24:05.234Z,14.82
2022-12-22T00:26:52.930Z,15.52
2022-12-22T00:29:38.850Z,16.50
2022-12-22T00:32:24.580Z,15.30
2022-12-22T00:35:10.578Z,16.10
2022-12-22T00:37:56.441Z,11.63
2022-12-22T00:40:45.220Z,16.33
2022-12-22T00:43:31.088Z,17.40
2022-12-22T00:46:18.712Z,13.10
2022-12-22T00:49:04.547Z,15.02
2022-12-22T00:51:51.026Z,11.17
2022-12-22T00:54:38.835Z,14.52
2022-12-22T00:57:24.406Z,15.15
2022-12-22T01:00:10.984Z,14.68
2022-12-22T01:02:56.200Z,15.48
2022-12-22T01:05:41.302Z,14.43
2022-12-22T01:08:29.686Z,16.02
2022-12-22T01:11:15.052Z,15.23
2022-12-22T01:13:59.832Z,14.77
2022-12-22T01:16:44.972Z,15.93
2022-12-22T01:19:29.929Z,17.23
2022-12-22T01:22:15.652Z,18.52
2022-12-22T01:25:04.409Z,11.45
2022-12-22T01:27:49.224Z,15.45
2022-12-22T01:30:34.561Z,16.20
2022-12-22T01:33:19.719Z,15.75
2022-12-22T01:36:04.851Z,14.68
2022-12-22T01:38:49.678Z,15.02
2022-12-22T01:41:38.706Z,14.93
2022-12-22T01:44:32.523Z,15.93
2022-12-22T01:47:48.654Z,14.18
2022-12-22T01:53:21.467Z,14.50
2022-12-22T01:56:06.513Z,14.57
2022-12-22T01:59:01.013Z,14.93
2022-12-22T02:01:48.446Z,15.32
2022-12-22T02:04:35.249Z,15.07
2022-12-22T02:10:15.370Z,14.15
2022-12-22T02:13:03.482Z,14.65
2022-12-22T02:15:52.873Z,14.65
2022-12-22T02:18:53.825Z,18.55
2022-12-22T02:21:43.831Z,19.27
2022-12-22T02:24:45.523Z,20.00
2022-12-22T02:27:31.474Z,20.02
2022-12-22T02:30:21.694Z,15.52
2022-12-22T02:33:10.092Z,21.58
2022-12-22T02:36:15.785Z,17.83
2022-12-22T02:39:06.989Z,15.43
2022-12-22T02:42:21.097Z,15.27
2022-12-22T02:45:39.826Z,15.48
2022-12-22T02:48:34.757Z,15.30
2022-12-22T02:51:25.799Z,16.55
2022-12-22T02:54:12.718Z,14.50
2022-12-22T02:56:59.370Z,15.38
2022-12-22T03:02:32.091Z,14.02
2022-12-22T03:05:17.371Z,14.82
2022-12-22T03:08:08.046Z,15.02
2022-12-22T03:10:53.969Z,15.38
2022-12-22T03:13:38.787Z,14.30
2022-12-22T03:16:24.372Z,14.60
2022-12-22T03:19:09.399Z,15.90
2022-12-22T03:21:54.573Z,15.32
2022-12-22T03:24:39.447Z,16.63
2022-12-22T03:27:06.033Z,17.85
2022-12-22T03:29:32.608Z,18.98
2022-12-22T03:31:59.285Z,18.85
2022-12-22T03:34:25.949Z,18.77
2022-12-22T03:36:52.623Z,15.25
2022-12-22T03:39:19.176Z,15.25
2022-12-22T03:42:04.410Z,14.95
2022-12-22T03:44:49.426Z,15.02
2022-12-22T03:47:16.043Z,15.13
2022-12-22T03:49:42.640Z,15.45
2022-12-22T03:52:09.209Z,13.85
2022-12-22T03:54:35.807Z,15.02
2022-12-22T03:57:02.352Z,15.13
2022-12-22T03:59:28.923Z,11.07
2022-12-22T04:01:55.694Z,14.20
2022-12-22T04:04:24.795Z,14.75
2022-12-22T04:06:52.392Z,14.63
2022-12-22T04:09:19.047Z,15.90
2022-12-22T04:12:04.485Z,24.88
2022-12-22T04:14:34.181Z,24.80
2022-12-22T04:17:05.206Z,25.30
2022-12-22T04:19:31.910Z,27.48
2022-12-22T04:21:58.941Z,26.60
2022-12-22T04:24:25.539Z,27.02
2022-12-22T04:26:52.191Z,25.05
2022-12-22T04:29:18.748Z,24.92
2022-12-22T04:31:45.427Z,17.67
2022-12-22T04:34:12.019Z,21.92
2022-12-22T04:36:38.649Z,20.42
2022-12-22T04:39:05.231Z,20.33
2022-12-22T04:41:31.825Z,19.40
2022-12-22T04:43:58.398Z,21.15
2022-12-22T04:46:25.055Z,21.17
2022-12-22T04:48:56.187Z,20.70
2022-12-22T04:51:26.167Z,17.15
2022-12-22T04:53:52.831Z,16.63
2022-12-22T04:56:19.362Z,17.60
2022-12-22T04:58:45.913Z,19.17
2022-12-22T05:01:15.216Z,18.45
2022-12-22T05:03:42.326Z,20.05
2022-12-22T05:08:35.927Z,24.35
2022-12-22T05:11:03.080Z,25.92
2022-12-22T05:16:07.123Z,25.42
2022-12-22T05:18:35.061Z,24.38
2022-12-22T05:21:07.588Z,32.75
2022-12-22T05:23:34.148Z,51.58
2022-12-22T05:26:00.776Z,39.42
2022-12-22T05:28:27.306Z,24.83
2022-12-22T05:30:54.974Z,30.63
2022-12-22T05:33:21.719Z,28.60
2022-12-22T05:35:48.291Z,24.15
2022-12-22T05:38:14.868Z,23.95
2022-12-22T05:40:41.389Z,22.45
2022-12-22T05:43:07.953Z,24.55
2022-12-22T05:45:34.608Z,19.20
2022-12-22T05:48:01.178Z,21.90
2022-12-22T05:50:28.014Z,16.10
2022-12-22T05:52:54.988Z,18.80
2022-12-22T05:55:21.573Z,17.63
2022-12-22T05:57:48.272Z,17.25
2022-12-22T06:00:16.646Z,18.42
2022-12-22T06:02:44.302Z,22.90
2022-12-22T06:05:13.478Z,22.35
2022-12-22T06:07:40.151Z,25.58
2022-12-22T06:10:12.714Z,33.85
2022-12-22T06:12:40.396Z,35.63
2022-12-22T06:15:08.283Z,36.95
2022-12-22T06:17:39.111Z,39.40
2022-12-22T06:20:09.241Z,37.55
2022-12-22T06:22:35.880Z,38.53
2022-12-22T06:25:02.608Z,40.70
2022-12-22T06:27:29.210Z,36.28
2022-12-22T06:29:55.792Z,37.63
2022-12-22T06:32:22.326Z,36.60
2022-12-22T06:34:48.930Z,39.05
2022-12-22T06:37:15.485Z,36.92
2022-12-22T06:39:42.003Z,36.38
2022-12-22T06:42:28.860Z,35.67
2022-12-22T06:44:55.582Z,37.88
2022-12-22T06:47:22.731Z,38.35
2022-12-22T06:52:16.322Z,30.00
2022-12-22T06:54:42.919Z,31.55
2022-12-22T06:57:09.529Z,38.88
2022-12-22T06:59:36.181Z,39.35
2022-12-22T07:02:03.498Z,39.78
2022-12-22T07:04:30.922Z,41.30
2022-12-22T07:06:57.579Z,39.20
2022-12-22T07:09:24.274Z,36.17
2022-12-22T07:11:50.946Z,30.00
2022-12-22T07:14:17.511Z,29.70
2022-12-22T07:16:44.220Z,32.03
2022-12-22T07:19:10.897Z,37.55
2022-12-22T07:21:37.505Z,30.08
2022-12-22T07:24:04.374Z,27.50
2022-12-22T07:26:31.420Z,38.30
2022-12-22T07:28:57.996Z,34.20
2022-12-22T07:31:24.718Z,36.00
2022-12-22T07:33:52.071Z,32.08
2022-12-22T07:36:20.295Z,28.60
2022-12-22T07:38:49.428Z,28.98
2022-12-22T07:41:36.346Z,33.15
2022-12-22T07:44:03.657Z,33.08
2022-12-22T07:46:33.798Z,30.48
2022-12-22T07:49:18.859Z,29.27
2022-12-22T07:51:45.591Z,27.98
2022-12-22T07:54:14.615Z,27.85
2022-12-22T07:56:42.065Z,26.30
2022-12-22T07:59:09.708Z,25.23
2022-12-22T08:01:36.441Z,26.65
2022-12-22T08:04:03.202Z,26.10
2022-12-22T08:06:29.764Z,27.20
2022-12-22T08:08:56.250Z,27.73
2022-12-22T08:11:22.781Z,29.27
2022-12-22T08:13:50.021Z,30.38
2022-12-22T08:18:43.275Z,29.92
2022-12-22T08:21:10.469Z,32.42
2022-12-22T08:26:27.080Z,31.83
2022-12-22T08:29:01.938Z,31.75
2022-12-22T08:31:29.563Z,30.08
2022-12-22T08:33:59.818Z,29.75
2022-12-22T08:36:26.930Z,30.55
2022-12-22T08:38:53.620Z,28.90
2022-12-22T08:41:40.183Z,28.98
2022-12-22T08:44:06.702Z,27.40
2022-12-22T08:46:33.349Z,26.10
2022-12-22T08:48:59.984Z,25.27
2022-12-22T08:51:26.768Z,21.33
2022-12-22T08:54:08.923Z,26.00
2022-12-22T08:56:35.887Z,29.48
2022-12-22T08:59:05.347Z,37.22
2022-12-22T09:01:33.323Z,30.02
2022-12-22T09:04:00.125Z,27.40
2022-12-22T09:06:28.434Z,27.73
2022-12-22T09:08:57.809Z,23.70
2022-12-22T09:11:24.838Z,25.20
2022-12-22T09:13:53.234Z,40.45
2022-12-22T09:16:21.227Z,22.73
2022-12-22T09:18:47.847Z,23.75
2022-12-22T09:21:14.679Z,19.75
2022-12-22T09:23:41.368Z,26.20
2022-12-22T09:26:10.429Z,33.78
2022-12-22T09:28:37.286Z,24.80
2022-12-22T09:31:04.541Z,34.30
2022-12-22T09:33:32.090Z,31.02
2022-12-22T09:35:58.657Z,27.52
2022-12-22T09:38:29.014Z,24.42
2022-12-22T09:40:58.448Z,24.63
2022-12-22T09:43:30.243Z,28.50
2022-12-22T09:45:58.583Z,23.58
2022-12-22T09:48:34.361Z,21.90
2022-12-22T09:51:02.459Z,22.00
2022-12-22T09:53:29.081Z,23.05
2022-12-22T09:55:55.705Z,27.40
2022-12-22T09:58:29.287Z,27.40
2022-12-22T10:01:20.522Z,23.55
2022-12-22T10:04:25.256Z,23.73
2022-12-22T10:07:02.319Z,26.00
2022-12-22T10:12:21.624Z,22.13
2022-12-22T10:14:50.004Z,20.42
2022-12-22T10:17:29.130Z,20.55
2022-12-22T10:20:17.284Z,22.65
2022-12-22T10:23:14.058Z,26.15
2022-12-22T10:28:43.809Z,19.63
2022-12-22T10:31:12.122Z,22.02
2022-12-22T10:33:45.838Z,22.65
2022-12-22T10:36:15.563Z,22.00
2022-12-22T10:38:59.556Z,22.15
2022-12-22T10:41:30.718Z,45.83
2022-12-22T10:43:58.476Z,23.58
2022-12-22T10:46:41.215Z,22.15
2022-12-22T10:49:23.994Z,23.20
2022-12-22T10:51:57.188Z,18.88
2022-12-22T10:54:30.196Z,18.70
2022-12-22T10:57:06.962Z,17.05
2022-12-22T10:59:46.430Z,19.00
2022-12-22T11:02:22.856Z,21.45
2022-12-22T11:04:51.355Z,14.63
2022-12-22T11:07:18.952Z,20.27
2022-12-22T11:09:45.838Z,20.15
2022-12-22T11:12:43.360Z,21.77
2022-12-22T11:15:31.809Z,19.35
2022-12-22T11:18:05.919Z,17.95
2022-12-22T11:20:32.407Z,17.15
2022-12-22T11:23:04.585Z,25.43
2022-12-22T11:25:56.582Z,20.05
2022-12-22T11:28:36.949Z,18.65
2022-12-22T11:31:11.435Z,17.13
2022-12-22T11:33:43.820Z,19.05
2022-12-22T11:36:36.853Z,17.00
2022-12-22T11:39:15.996Z,17.77
2022-12-22T11:41:57.522Z,16.98
2022-12-22T11:44:45.721Z,17.35
2022-12-22T11:47:25.733Z,17.10
2022-12-22T11:50:58.200Z,17.42
2022-12-22T11:53:26.800Z,16.40
2022-12-22T11:56:12.038Z,17.20
2022-12-22T11:58:43.503Z,17.83
2022-12-22T12:01:47.682Z,16.60
2022-12-22T12:04:35.801Z,18.15
2022-12-22T12:07:25.360Z,17.38
2022-12-22T12:10:17.511Z,16.25
2022-12-22T12:12:50.758Z,17.10
2022-12-22T12:15:25.946Z,16.42
2022-12-22T12:18:15.769Z,16.55
2022-12-22T12:20:48.166Z,16.67
2022-12-22T12:23:20.696Z,15.68
2022-12-22T12:25:59.181Z,20.08
2022-12-22T12:28:53.277Z,23.67
2022-12-22T12:31:26.585Z,19.67
2022-12-22T12:33:59.225Z,18.33
2022-12-22T12:36:28.505Z,18.65
2022-12-22T12:39:19.155Z,19.83
2022-12-22T12:42:07.129Z,18.25
2022-12-22T12:44:37.261Z,19.35
2022-12-22T12:47:08.163Z,20.52
2022-12-22T12:49:34.738Z,20.65
2022-12-22T12:52:08.860Z,22.17
2022-12-22T12:54:47.290Z,20.58
2022-12-22T12:57:26.621Z,19.20
2022-12-22T12:59:58.695Z,19.05
2022-12-22T13:02:28.498Z,19.58
2022-12-22T13:05:27.044Z,19.45
2022-12-22T13:08:15.401Z,18.80
2022-12-22T13:11:08.573Z,18.35
2022-12-22T13:13:35.157Z,18.75
2022-12-22T13:16:01.898Z,20.15
2022-12-22T13:18:34.566Z,19.52
2022-12-22T13:21:26.199Z,20.38
2022-12-22T13:24:27.636Z,21.45
2022-12-22T13:27:01.738Z,21.38
2022-12-22T13:29:42.014Z,22.83
2022-12-22T13:32:21.151Z,21.08
2022-12-22T13:37:50.240Z,35.08
2022-12-22T13:40:28.435Z,33.72
2022-12-22T13:43:05.257Z,30.52
2022-12-22T13:45:40.082Z,31.75
2022-12-22T13:48:30.475Z,34.47
2022-12-22T13:51:01.327Z,34.78
2022-12-22T13:56:46.537Z,30.65
2022-12-22T13:59:28.820Z,29.00
2022-12-22T14:02:12.665Z,28.10
2022-12-22T14:04:43.142Z,23.92
2022-12-22T14:07:19.034Z,19.90
2022-12-22T14:09:50.692Z,17.45
2022-12-22T14:12:23.824Z,23.75
2022-12-22T14:14:52.455Z,17.13
2022-12-22T14:17:36.513Z,16.90
2022-12-22T14:20:21.792Z,17.30
2022-12-22T14:23:19.965Z,16.08
2022-12-22T14:25:48.004Z,16.33
2022-12-22T14:28:25.858Z,17.13
2022-12-22T14:30:56.062Z,16.15
2022-12-22T14:33:29.989Z,17.85
2022-12-22T14:36:20.879Z,18.70
2022-12-22T14:39:02.523Z,16.77
2022-12-22T14:41:51.427Z,16.73
2022-12-22T14:44:43.654Z,17.70
2022-12-22T14:47:17.299Z,18.05
2022-12-22T14:49:46.531Z,20.52
2022-12-22T14:52:22.223Z,19.95
2022-12-22T14:54:51.745Z,22.73
2022-12-22T14:57:28.838Z,18.48
2022-12-22T15:00:05.962Z,16.40
2022-12-22T15:05:10.045Z,19.65
2022-12-22T15:10:39.465Z,21.27
2022-12-22T15:13:13.187Z,22.35
2022-12-22T15:15:39.942Z,15.20
2022-12-22T15:18:06.576Z,16.23
2022-12-22T15:20:38.992Z,16.85
2022-12-22T15:23:16.735Z,18.67
2022-12-22T15:28:10.175Z,22.83
2022-12-22T15:30:38.419Z,16.88
2022-12-22T15:33:13.691Z,17.00
2022-12-22T15:35:40.351Z,17.58
2022-12-22T15:38:17.324Z,17.63
2022-12-22T15:40:43.965Z,20.63
2022-12-22T15:43:28.897Z,18.85
2022-12-22T15:45:58.244Z,15.90
2022-12-22T15:48:31.319Z,17.45
2022-12-22T15:50:59.016Z,16.38
2022-12-22T15:53:25.857Z,15.95
2022-12-22T15:55:54.937Z,16.23
2022-12-22T15:58:26.080Z,15.55
2022-12-22T16:00:53.174Z,15.57
2022-12-22T16:03:19.955Z,17.42
2022-12-22T16:05:46.932Z,16.70
2022-12-22T16:08:20.419Z,18.60
2022-12-22T16:10:47.493Z,17.98
2022-12-22T16:13:16.172Z,21.45
2022-12-22T16:15:43.006Z,16.80
2022-12-22T16:18:13.007Z,16.30
2022-12-22T16:20:43.038Z,18.42
2022-12-22T16:23:18.873Z,23.95
2022-12-22T16:25:46.650Z,20.58
2022-12-22T16:28:17.575Z,26.38
2022-12-22T16:30:45.031Z,23.42
2022-12-22T16:33:12.861Z,27.77
2022-12-22T16:35:39.867Z,18.48
2022-12-22T16:38:06.854Z,15.32
2022-12-22T16:40:39.919Z,16.25
2022-12-22T16:43:48.913Z,19.80
2022-12-22T16:46:18.791Z,21.02
2022-12-22T16:48:56.974Z,21.30
2022-12-22T16:51:28.107Z,22.25
2022-12-22T16:53:54.966Z,22.20
2022-12-22T16:56:24.881Z,20.52
2022-12-22T16:58:51.479Z,19.52
2022-12-22T17:01:27.278Z,61.70
2022-12-22T17:03:54.613Z,49.38
2022-12-22T17:08:48.479Z,23.60
2022-12-22T17:16:22.661Z,16.42
2022-12-22T17:18:49.694Z,16.20
2022-12-22T17:21:20.876Z,16.55
2022-12-22T17:23:50.859Z,16.80
2022-12-22T17:26:21.272Z,15.50
2022-12-22T17:28:49.990Z,15.02
2022-12-22T17:31:18.795Z,15.23
2022-12-22T17:33:46.118Z,15.68
2022-12-22T17:38:45.721Z,15.70
2022-12-22T17:41:14.588Z,15.63
2022-12-22T17:43:41.355Z,16.30
2022-12-22T17:46:19.961Z,16.10
2022-12-22T17:48:47.455Z,18.38
2022-12-22T17:51:20.910Z,25.60
2022-12-22T17:53:47.814Z,16.67
2022-12-22T17:56:19.216Z,17.67
2022-12-22T17:58:46.099Z,19.58
2022-12-22T18:01:21.844Z,19.90
2022-12-22T18:03:48.730Z,18.75
2022-12-22T18:06:18.251Z,25.05
2022-12-22T18:08:45.390Z,23.08
2022-12-22T18:11:12.725Z,20.80
2022-12-22T18:13:39.807Z,18.83
2022-12-22T18:16:07.583Z,16.65
2022-12-22T18:18:34.359Z,16.67
2022-12-22T18:21:07.401Z,15.10
2022-12-22T18:23:36.558Z,18.20
2022-12-22T18:26:05.929Z,16.40
2022-12-22T18:28:32.555Z,15.13
2022-12-22T18:30:59.421Z,16.23
2022-12-22T18:33:26.220Z,16.75
2022-12-22T18:35:53.400Z,15.30
2022-12-22T18:38:46.748Z,14.75
2022-12-22T18:41:22.819Z,15.18
2022-12-22T18:43:49.999Z,15.23
2022-12-22T18:48:43.902Z,15.30
2022-12-22T18:51:21.096Z,15.23
2022-12-22T18:53:51.852Z,14.80
2022-12-22T18:56:19.108Z,13.95
2022-12-22T19:01:19.963Z,13.40
2022-12-22T19:03:48.145Z,15.25
2022-12-22T19:06:17.610Z,14.02
2022-12-22T19:08:46.080Z,14.65
2022-12-22T19:11:14.921Z,13.88
2022-12-22T19:13:46.058Z,14.30
2022-12-22T19:16:24.189Z,14.27
2022-12-22T19:18:50.833Z,17.08
2022-12-22T19:21:18.716Z,12.05
2022-12-22T19:23:45.807Z,14.00
2022-12-22T19:26:22.791Z,13.45
2022-12-22T19:29:01.299Z,14.23
2022-12-22T19:31:33.460Z,13.07
2022-12-22T19:34:04.310Z,14.88
2022-12-22T19:36:31.782Z,13.38
2022-12-22T19:39:04.343Z,13.48
2022-12-22T19:41:45.312Z,14.30
2022-12-22T19:44:24.989Z,13.25
2022-12-22T19:46:53.439Z,16.45
2022-12-22T19:49:22.969Z,14.63
2022-12-22T19:51:49.905Z,13.90
2022-12-22T19:54:19.699Z,18.98
2022-12-22T19:56:49.852Z,18.83
2022-12-22T19:59:39.178Z,14.25
2022-12-22T20:02:21.532Z,13.70
2022-12-22T20:04:49.454Z,13.10
2022-12-22T20:07:18.152Z,12.77
2022-12-22T20:09:45.207Z,13.93
2022-12-22T20:12:36.090Z,14.73
2022-12-22T20:15:33.813Z,13.85
2022-12-22T20:18:01.841Z,13.68
2022-12-22T20:20:34.771Z,13.63
2022-12-22T20:23:13.540Z,15.05
2022-12-22T20:25:43.491Z,15.90
2022-12-22T20:28:14.361Z,15.45
2022-12-22T20:30:41.208Z,29.00
2022-12-22T20:33:07.939Z,24.40
2022-12-22T20:35:37.028Z,19.98
2022-12-22T20:38:13.623Z,13.65
2022-12-22T20:40:40.200Z,13.95
2022-12-22T20:43:15.944Z,13.18
2022-12-22T20:45:44.448Z,13.15
2022-12-22T20:48:35.231Z,13.80
2022-12-22T20:51:03.083Z,14.65
2022-12-22T20:53:29.878Z,15.15
2022-12-22T20:55:57.072Z,14.60
2022-12-22T21:00:54.953Z,12.73
2022-12-22T21:03:21.762Z,13.10
2022-12-22T21:05:49.307Z,13.60
2022-12-22T21:08:21.753Z,14.52
2022-12-22T21:10:49.306Z,14.50
2022-12-22T21:13:17.038Z,15.07
2022-12-22T21:15:45.803Z,15.10
2022-12-22T21:18:18.098Z,14.18
2022-12-22T21:20:45.118Z,12.77
2022-12-22T21:23:14.168Z,13.70
2022-12-22T21:25:46.788Z,14.02
2022-12-22T21:28:26.749Z,13.90
2022-12-22T21:30:53.447Z,13.55
2022-12-22T21:33:20.085Z,13.63
2022-12-22T21:35:46.762Z,14.63
2022-12-22T21:38:22.147Z,10.32
2022-12-22T21:40:48.860Z,13.18
2022-12-22T21:43:16.296Z,12.95
2022-12-22T21:45:44.612Z,13.18
2022-12-22T21:48:13.410Z,13.90
2022-12-22T21:50:40.634Z,15.48
2022-12-22T21:55:36.475Z,16.02
2022-12-22T21:58:04.382Z,22.73
2022-12-22T22:00:32.797Z,20.80
2022-12-22T22:03:01.948Z,15.65
2022-12-22T22:05:36.508Z,16.02
2022-12-22T22:08:06.174Z,15.93
2022-12-22T22:10:35.954Z,15.25
2022-12-22T22:13:03.304Z,15.77
2022-12-22T22:15:30.708Z,16.52
2022-12-22T22:18:03.009Z,14.45
2022-12-22T22:20:33.411Z,13.10
2022-12-22T22:23:00.189Z,13.38
2022-12-22T22:25:26.863Z,13.13
2022-12-22T22:27:53.747Z,13.40
2022-12-22T22:30:25.342Z,15.05
2022-12-22T22:32:52.802Z,16.15
2022-12-22T22:35:19.931Z,14.10
2022-12-22T22:37:50.776Z,13.18
2022-12-22T22:40:20.032Z,13.50
2022-12-22T22:42:46.721Z,16.15
2022-12-22T22:45:16.150Z,13.68
2022-12-22T22:47:42.731Z,22.17
2022-12-22T22:50:09.626Z,24.52
2022-12-22T22:52:36.751Z,30.10
2022-12-22T22:55:03.792Z,35.63
2022-12-22T22:57:30.427Z,37.90
2022-12-22T22:59:56.946Z,37.47
2022-12-22T23:02:24.083Z,26.50
2022-12-22T23:04:50.727Z,32.55
2022-12-22T23:07:17.256Z,22.73
2022-12-22T23:09:43.772Z,29.67
2022-12-22T23:12:10.378Z,22.73
2022-12-22T23:14:37.006Z,28.67
2022-12-22T23:17:03.647Z,28.58
2022-12-22T23:19:30.167Z,30.17
2022-12-22T23:21:57.099Z,29.65
2022-12-22T23:24:23.708Z,30.08
2022-12-22T23:26:50.302Z,23.23
2022-12-22T23:29:16.900Z,30.23
2022-12-22T23:31:43.695Z,29.27
2022-12-22T23:34:11.785Z,28.33
2022-12-22T23:36:38.398Z,27.95
2022-12-22T23:39:05.035Z,26.42
2022-12-22T23:41:31.758Z,24.38
2022-12-22T23:43:58.411Z,23.98
2022-12-22T23:46:25.038Z,21.42
2022-12-22T23:48:57.429Z,21.95
2022-12-22T23:51:27.623Z,19.98
2022-12-22T23:53:55.565Z,20.08
2022-12-22T23:56:22.512Z,19.73
2022-12-22T23:58:54.481Z,20.08
